Time;durP1;ratioP1;P1;durP2;ratioP2;P2;SDS_P1;SDS_P2;PMS_P1;PMS_P2;Temp;Humidity;BMP_temperature;BMP_pressure;BME280_temperature;BME280_humidity;BME280_pressure;Samples;Min_cycle;Max_cycle;Signal;HPM_P1;HPM_P2
2021/09/07 00:02:13;;;;;;;24.92;19.08;;;;;;;16.83;67.17;101396.47;4882163;28;126317;-60
2021/09/07 00:04:39;;;;;;;19.90;17.73;;;;;;;16.79;66.96;101392.72;4877375;28;126702;-63
2021/09/07 00:07:05;;;;;;;21.00;17.88;;;;;;;16.75;67.00;101388.94;4885068;28;122762;-61
2021/09/07 00:09:31;;;;;;;20.73;17.20;;;;;;;16.71;67.30;101379.69;4881164;28;97874;-60
2021/09/07 00:11:57;;;;;;;19.60;16.30;;;;;;;16.67;67.34;101382.16;4884419;28;128164;-62
2021/09/07 00:14:23;;;;;;;18.85;16.33;;;;;;;16.66;67.48;101386.81;4880062;28;126983;-62
2021/09/07 00:16:49;;;;;;;18.30;16.27;;;;;;;16.66;67.25;101378.63;4878359;28;121562;-62
2021/09/07 00:19:15;;;;;;;18.20;16.15;;;;;;;16.68;67.38;101379.16;4886205;28;98547;-60
2021/09/07 00:21:41;;;;;;;20.05;16.70;;;;;;;16.70;67.45;101376.13;4876967;28;128807;-63
2021/09/07 00:24:07;;;;;;;19.85;16.48;;;;;;;16.67;67.40;101380.25;4890104;28;126283;-60
2021/09/07 00:26:33;;;;;;;20.27;15.90;;;;;;;16.67;67.57;101388.41;4877138;28;120453;-63
2021/09/07 00:28:59;;;;;;;20.00;15.98;;;;;;;16.69;67.46;101382.69;4876988;28;128484;-60
2021/09/07 00:31:25;;;;;;;19.58;17.15;;;;;;;16.69;67.33;101385.41;4877262;28;127158;-63
2021/09/07 00:33:51;;;;;;;22.77;16.33;;;;;;;16.67;67.30;101377.53;4877390;28;125425;-63
2021/09/07 00:36:17;;;;;;;20.23;16.98;;;;;;;16.65;67.13;101377.00;4879164;28;120757;-60
2021/09/07 00:38:43;;;;;;;20.00;17.05;;;;;;;16.63;67.28;101381.91;4879100;28;127701;-63
2021/09/07 00:41:09;;;;;;;21.63;17.75;;;;;;;16.60;67.43;101370.78;4880338;28;98741;-60
2021/09/07 00:43:39;;;;;;;20.00;17.27;;;;;;;16.58;67.59;101375.69;4880378;28;128554;-60
2021/09/07 00:46:05;;;;;;;21.27;17.05;;;;;;;16.58;67.74;101378.41;4893278;28;109814;-60
2021/09/07 00:48:31;;;;;;;19.40;17.15;;;;;;;16.58;67.59;101376.50;4875476;28;127940;-63
2021/09/07 00:50:57;;;;;;;18.42;16.33;;;;;;;16.57;67.67;101371.34;4876718;28;127256;-60
2021/09/07 00:53:23;;;;;;;19.95;16.70;;;;;;;16.56;67.48;101367.81;4876616;28;126432;-60
2021/09/07 00:55:49;;;;;;;20.77;16.92;;;;;;;16.54;67.33;101361.84;4879904;28;122566;-63
2021/09/07 00:58:15;;;;;;;19.70;16.45;;;;;;;16.54;67.70;101371.91;4879759;28;126945;-60
2021/09/07 01:00:42;;;;;;;18.80;16.38;;;;;;;16.53;67.59;101365.66;4857193;28;128160;-60
2021/09/07 01:03:08;;;;;;;20.10;16.83;;;;;;;16.55;67.52;101362.69;4884047;28;102558;-63
2021/09/07 01:05:35;;;;;;;20.55;17.17;;;;;;;16.52;67.60;101361.34;4884966;28;122901;-60
2021/09/07 01:08:01;;;;;;;22.10;17.35;;;;;;;16.53;67.63;101359.41;4876780;28;97981;-63
2021/09/07 01:10:28;;;;;;;23.05;17.55;;;;;;;16.51;67.24;101356.19;4898060;28;113149;-60
2021/09/07 01:12:55;;;;;;;20.58;16.73;;;;;;;16.49;67.56;101352.94;4894987;28;126465;-63
2021/09/07 01:15:21;;;;;;;18.40;16.33;;;;;;;16.49;67.89;101359.19;4891627;28;98200;-60
2021/09/07 01:17:47;;;;;;;19.63;16.60;;;;;;;16.49;67.50;101347.47;4882060;28;127928;-63
2021/09/07 01:20:13;;;;;;;21.33;17.27;;;;;;;16.48;67.36;101348.59;4880398;28;127020;-60
2021/09/07 01:22:40;;;;;;;18.27;15.73;;;;;;;16.47;67.80;101350.50;4881576;28;98147;-60
2021/09/07 01:25:06;;;;;;;19.38;16.13;;;;;;;16.47;67.63;101350.50;4880747;28;97962;-60
2021/09/07 01:27:32;;;;;;;19.98;16.25;;;;;;;16.44;67.93;101348.34;4876659;28;115459;-63
2021/09/07 01:29:58;;;;;;;20.85;16.75;;;;;;;16.45;67.83;101347.25;4880269;28;128249;-60
2021/09/07 01:32:24;;;;;;;20.95;16.38;;;;;;;16.43;67.85;101350.25;4880705;28;98465;-63
2021/09/07 01:34:51;;;;;;;18.88;16.55;;;;;;;16.43;67.83;101349.44;4881362;28;97777;-60
2021/09/07 01:37:17;;;;;;;20.60;17.42;;;;;;;16.41;67.63;101349.72;4880103;28;97850;-62
2021/09/07 01:39:43;;;;;;;20.63;17.00;;;;;;;16.39;67.85;101349.19;4885828;28;128762;-63
2021/09/07 01:42:09;;;;;;;20.42;16.95;;;;;;;16.37;67.68;101339.69;4879526;28;105103;-61
2021/09/07 01:44:43;;;;;;;19.48;17.10;;;;;;;16.34;67.49;101335.63;4877354;28;123180;-63
2021/09/07 01:47:09;;;;;;;20.20;16.85;;;;;;;16.32;67.74;101337.84;4880042;28;116268;-63
2021/09/07 01:49:36;;;;;;;19.45;16.75;;;;;;;16.30;68.08;101345.44;4879247;28;98245;-63
2021/09/07 01:52:13;;;;;;;21.42;17.45;;;;;;;16.27;67.94;101339.75;4880034;28;113727;-61
2021/09/07 01:54:41;;;;;;;22.38;17.23;;;;;;;16.27;67.92;101348.75;4881400;28;97804;-60
2021/09/07 01:57:08;;;;;;;21.13;17.65;;;;;;;16.30;68.10;101347.38;4880631;28;97971;-60
2021/09/07 01:59:34;;;;;;;21.30;17.92;;;;;;;16.29;67.96;101345.75;4879393;28;119344;-63
2021/09/07 02:02:02;;;;;;;23.50;17.88;;;;;;;16.28;68.40;101344.94;4881037;28;98413;-60
2021/09/07 02:04:28;;;;;;;21.77;18.00;;;;;;;16.26;68.22;101354.47;4880558;28;97976;-60
2021/09/07 02:06:54;;;;;;;20.85;17.95;;;;;;;16.27;68.08;101361.53;4879664;28;98382;-60
2021/09/07 02:09:20;;;;;;;20.50;17.80;;;;;;;16.26;68.36;101349.84;4877857;28;128504;-60
2021/09/07 02:11:46;;;;;;;21.33;17.88;;;;;;;16.26;68.41;101357.19;4886192;28;98476;-60
2021/09/07 02:14:12;;;;;;;20.95;18.75;;;;;;;16.24;68.33;101349.31;4879098;28;123596;-63
2021/09/07 02:16:38;;;;;;;22.65;18.88;;;;;;;16.24;68.52;101349.31;4882772;28;127233;-63
2021/09/07 02:19:04;;;;;;;24.10;18.95;;;;;;;16.23;68.40;101357.75;4861641;28;125636;-60
2021/09/07 02:21:30;;;;;;;22.27;17.92;;;;;;;16.23;68.35;101358.59;4887455;28;128365;-63
2021/09/07 02:23:56;;;;;;;21.42;17.48;;;;;;;16.23;68.46;101357.75;4876363;28;123137;-63
2021/09/07 02:26:22;;;;;;;20.88;17.83;;;;;;;16.24;68.57;101353.97;4879145;28;128399;-60
2021/09/07 02:28:48;;;;;;;22.85;17.70;;;;;;;16.24;68.49;101360.22;4884498;28;128153;-63
2021/09/07 02:31:15;;;;;;;20.50;17.88;;;;;;;16.23;68.59;101364.03;4886134;28;128233;-63
2021/09/07 02:33:41;;;;;;;20.67;17.75;;;;;;;16.22;68.51;101356.13;4879781;28;122921;-64
2021/09/07 02:36:07;;;;;;;22.55;18.65;;;;;;;16.20;68.92;101357.25;4881023;28;128233;-60
2021/09/07 02:38:33;;;;;;;21.60;18.45;;;;;;;16.18;68.44;101362.13;4880061;28;128015;-60
2021/09/07 02:40:59;;;;;;;22.73;18.02;;;;;;;16.16;68.84;101366.25;4891327;28;111569;-60
2021/09/07 02:43:26;;;;;;;21.40;17.80;;;;;;;16.15;69.05;101375.47;4884851;28;109939;-60
2021/09/07 02:45:52;;;;;;;20.17;17.98;;;;;;;16.14;68.84;101374.69;4879142;28;98592;-60
2021/09/07 02:48:19;;;;;;;20.73;17.88;;;;;;;16.14;68.88;101374.69;4877561;28;115712;-64
2021/09/07 02:50:45;;;;;;;22.67;19.10;;;;;;;16.14;68.98;101376.59;4878221;28;128605;-61
2021/09/07 02:53:11;;;;;;;21.42;17.73;;;;;;;16.13;69.28;101364.09;4887043;28;99681;-63
2021/09/07 02:55:37;;;;;;;22.98;19.00;;;;;;;16.13;69.15;101369.53;4878648;28;128072;-63
2021/09/07 02:58:04;;;;;;;22.52;19.58;;;;;;;16.12;69.16;101371.44;4883029;28;127997;-60
2021/09/07 03:00:31;;;;;;;21.80;19.10;;;;;;;16.11;69.22;101379.88;4879646;28;98546;-63
2021/09/07 03:02:57;;;;;;;22.27;18.27;;;;;;;16.08;69.42;101369.56;4882924;28;107163;-60
2021/09/07 03:05:23;;;;;;;20.90;18.58;;;;;;;16.05;69.32;101364.69;4878220;28;128317;-63
2021/09/07 03:07:49;;;;;;;23.60;18.70;;;;;;;16.04;69.39;101369.31;4885846;28;127096;-64
2021/09/07 03:10:15;;;;;;;21.75;17.98;;;;;;;16.03;69.57;101367.69;4877896;28;114299;-64
2021/09/07 03:12:42;;;;;;;23.25;18.67;;;;;;;16.02;69.33;101365.25;4889669;28;121727;-60
2021/09/07 03:15:09;;;;;;;22.15;18.63;;;;;;;16.00;69.65;101365.53;4894028;28;98177;-60
2021/09/07 03:17:35;;;;;;;21.98;18.70;;;;;;;15.98;69.71;101365.00;4879165;28;98314;-63
2021/09/07 03:20:01;;;;;;;21.58;18.58;;;;;;;15.97;69.52;101360.66;4878683;28;98190;-63
2021/09/07 03:22:30;;;;;;;24.00;19.10;;;;;;;15.94;69.64;101359.31;4880470;28;123796;-63
2021/09/07 03:24:57;;;;;;;20.92;18.40;;;;;;;15.93;69.80;101365.03;4881406;28;98798;-63
2021/09/07 03:27:23;;;;;;;23.35;18.60;;;;;;;15.90;69.75;101363.69;4879679;28;98897;-63
2021/09/07 03:29:49;;;;;;;23.13;18.73;;;;;;;15.90;70.10;101365.59;4877882;28;126520;-60
2021/09/07 03:32:15;;;;;;;21.88;18.02;;;;;;;15.88;69.74;101357.72;4883860;28;123220;-60
2021/09/07 03:34:41;;;;;;;24.05;19.40;;;;;;;15.88;69.78;101355.00;4878060;28;126772;-63
2021/09/07 03:37:07;;;;;;;24.20;19.30;;;;;;;15.87;69.68;101363.44;4877515;28;128200;-60
2021/09/07 03:39:33;;;;;;;22.17;18.25;;;;;;;15.87;69.75;101363.44;4878374;28;125855;-60
2021/09/07 03:41:59;;;;;;;18.85;16.77;;;;;;;15.87;70.12;101366.16;4879265;28;123242;-60
2021/09/07 03:44:25;;;;;;;23.02;18.58;;;;;;;15.88;70.03;101374.03;4877454;28;128133;-63
2021/09/07 03:46:51;;;;;;;21.27;18.50;;;;;;;15.87;69.93;101369.69;4879693;28;114166;-60
2021/09/07 03:49:17;;;;;;;22.17;18.67;;;;;;;15.86;70.16;101373.50;4892693;28;99876;-60
2021/09/07 03:51:44;;;;;;;23.00;18.15;;;;;;;15.85;70.50;101366.44;4882162;28;122793;-60
2021/09/07 03:54:10;;;;;;;22.73;17.65;;;;;;;15.84;70.20;101370.25;4876915;28;98592;-63
2021/09/07 03:56:36;;;;;;;21.48;17.77;;;;;;;15.86;69.83;101362.63;4877952;28;126765;-61
2021/09/07 03:59:03;;;;;;;22.73;18.85;;;;;;;15.85;70.22;101363.72;4891674;28;98142;-63
2021/09/07 04:01:29;;;;;;;22.17;18.33;;;;;;;15.86;70.30;101367.25;4875897;28;112505;-61
2021/09/07 04:03:55;;;;;;;20.95;17.67;;;;;;;15.86;70.12;101378.13;4893647;28;115452;-65
2021/09/07 04:06:22;;;;;;;21.95;18.20;;;;;;;15.84;70.05;101369.44;4882599;28;106035;-60
2021/09/07 04:08:48;;;;;;;21.00;17.92;;;;;;;15.82;70.32;101377.06;4878627;28;104690;-60
2021/09/07 04:11:14;;;;;;;21.30;17.95;;;;;;;15.82;70.63;101369.72;4877953;28;116374;-60
2021/09/07 04:13:40;;;;;;;21.92;18.92;;;;;;;15.81;70.08;101378.97;4891025;28;127247;-60
2021/09/07 04:16:06;;;;;;;22.50;18.45;;;;;;;15.82;70.37;101375.16;4878696;28;98640;-63
2021/09/07 04:18:32;;;;;;;24.10;19.08;;;;;;;15.82;70.14;101377.06;4883756;28;110481;-65
2021/09/07 04:20:58;;;;;;;22.10;18.02;;;;;;;15.81;70.49;101376.25;4884320;28;98195;-64
2021/09/07 04:23:24;;;;;;;21.63;17.90;;;;;;;15.81;70.41;101384.41;4877411;28;98325;-60
2021/09/07 04:25:50;;;;;;;20.73;18.05;;;;;;;15.83;70.56;101392.28;4878064;28;98565;-63
2021/09/07 04:28:16;;;;;;;21.92;18.30;;;;;;;15.82;70.30;101396.91;4877432;28;115674;-60
2021/09/07 04:30:42;;;;;;;23.95;18.55;;;;;;;15.83;70.16;101392.28;4877595;28;122684;-60
2021/09/07 04:33:08;;;;;;;19.70;17.58;;;;;;;15.84;70.25;101396.63;4877800;28;126779;-63
2021/09/07 04:35:34;;;;;;;22.05;17.88;;;;;;;15.84;70.62;101397.44;4883799;28;119202;-60
2021/09/07 04:38:00;;;;;;;22.33;17.88;;;;;;;15.85;70.11;101398.25;4884985;28;125643;-63
2021/09/07 04:40:26;;;;;;;22.20;18.02;;;;;;;15.85;70.41;101401.78;4883468;28;120894;-63
2021/09/07 04:42:53;;;;;;;21.23;18.20;;;;;;;15.86;70.57;101402.59;4884216;28;111815;-64
2021/09/07 04:45:19;;;;;;;21.23;17.77;;;;;;;15.86;70.41;101403.41;4888221;28;97949;-60
2021/09/07 04:47:45;;;;;;;22.67;18.42;;;;;;;15.86;70.49;101408.84;4889962;28;127554;-64
2021/09/07 04:50:12;;;;;;;23.80;18.45;;;;;;;15.86;70.05;101403.41;4883849;28;97934;-64
2021/09/07 04:52:38;;;;;;;22.58;17.80;;;;;;;15.87;70.58;101409.66;4885168;28;99317;-60
2021/09/07 04:55:04;;;;;;;22.08;18.85;;;;;;;15.88;70.25;101405.84;4883792;28;123296;-60
2021/09/07 04:57:30;;;;;;;23.98;18.65;;;;;;;15.88;70.24;101412.09;4886776;28;97955;-63
2021/09/07 04:59:56;;;;;;;21.25;17.75;;;;;;;15.89;70.54;101408.28;4884753;28;98384;-63
2021/09/07 05:02:22;;;;;;;23.83;18.60;;;;;;;15.93;70.04;101411.25;4883727;28;128158;-63
2021/09/07 05:04:48;;;;;;;24.42;19.20;;;;;;;15.97;70.19;101416.94;4895008;28;125878;-60
2021/09/07 05:07:14;;;;;;;22.73;18.45;;;;;;;15.98;70.06;101410.41;4883311;28;125552;-63
2021/09/07 05:09:41;;;;;;;23.15;18.30;;;;;;;15.99;70.21;101422.91;4883193;28;123046;-60
2021/09/07 05:12:07;;;;;;;23.70;18.13;;;;;;;16.03;70.01;101429.41;4882915;28;127848;-61
2021/09/07 05:14:33;;;;;;;21.20;17.90;;;;;;;16.05;70.33;101428.03;4887614;28;99327;-60
2021/09/07 05:16:59;;;;;;;24.60;18.60;;;;;;;16.08;70.06;101432.13;4883480;28;102599;-60
2021/09/07 05:19:25;;;;;;;23.38;18.50;;;;;;;16.10;69.97;101429.91;4884552;28;98821;-60
2021/09/07 05:21:51;;;;;;;24.63;18.77;;;;;;;16.12;70.58;101434.00;4882748;28;127731;-64
2021/09/07 05:24:17;;;;;;;21.55;17.65;;;;;;;16.13;69.77;101437.53;4893251;28;128905;-60
2021/09/07 05:26:43;;;;;;;21.45;17.73;;;;;;;16.15;69.73;101447.03;4884501;28;127502;-63
2021/09/07 05:29:09;;;;;;;25.88;18.50;;;;;;;16.17;69.47;101446.75;4883521;28;122669;-63
2021/09/07 05:31:35;;;;;;;21.23;17.40;;;;;;;16.16;69.93;101443.22;4883066;28;128282;-60
2021/09/07 05:34:01;;;;;;;21.13;18.00;;;;;;;16.18;69.79;101445.63;4884535;28;100247;-60
2021/09/07 05:36:27;;;;;;;21.10;17.83;;;;;;;16.19;69.56;101450.81;4883098;28;126847;-63
2021/09/07 05:38:53;;;;;;;21.20;17.20;;;;;;;16.21;69.65;101450.53;4884563;28;97821;-63
2021/09/07 05:41:19;;;;;;;21.88;17.65;;;;;;;16.22;69.59;101454.88;4883127;28;112061;-60
2021/09/07 05:43:45;;;;;;;21.73;17.88;;;;;;;16.24;69.73;101447.25;4887876;28;128173;-60
2021/09/07 05:46:12;;;;;;;21.33;17.10;;;;;;;16.26;69.87;101455.13;4880995;28;97985;-61
2021/09/07 05:48:38;;;;;;;21.27;17.23;;;;;;;16.28;69.64;101450.22;4881425;28;122295;-60
2021/09/07 05:51:04;;;;;;;21.73;17.98;;;;;;;16.31;69.13;101455.06;4880799;28;100193;-63
2021/09/07 05:53:30;;;;;;;22.08;17.80;;;;;;;16.33;69.16;101452.91;4898097;28;98775;-60
2021/09/07 05:55:56;;;;;;;23.20;17.38;;;;;;;16.35;69.12;101450.72;4880136;28;127054;-60
2021/09/07 05:58:22;;;;;;;21.83;18.45;;;;;;;16.38;69.02;101455.56;4885053;28;122442;-63
2021/09/07 06:00:48;;;;;;;21.80;18.17;;;;;;;16.42;68.98;101459.34;4888675;28;124283;-60
2021/09/07 06:03:14;;;;;;;21.58;17.58;;;;;;;16.44;69.23;101460.72;4883750;28;99873;-63
2021/09/07 06:05:40;;;;;;;22.75;17.92;;;;;;;16.47;69.16;101458.53;4879825;28;103728;-60
2021/09/07 06:08:06;;;;;;;21.92;17.38;;;;;;;16.51;68.98;101454.97;4880056;28;122888;-63
2021/09/07 06:10:32;;;;;;;21.70;17.48;;;;;;;16.56;69.00;101457.63;4880224;28;125995;-60
2021/09/07 06:13:00;;;;;;;22.08;17.10;;;;;;;16.60;68.92;101463.34;4893383;28;127805;-60
2021/09/07 06:15:26;;;;;;;22.25;18.00;;;;;;;16.63;68.71;101474.47;4884197;28;97937;-63
2021/09/07 06:17:52;;;;;;;21.00;17.50;;;;;;;16.67;68.88;101475.53;4879436;28;121588;-63
2021/09/07 06:20:18;;;;;;;22.75;17.58;;;;;;;16.71;68.65;101472.25;4879837;28;101174;-60
2021/09/07 06:22:44;;;;;;;21.60;17.50;;;;;;;16.79;68.68;101482.56;4879824;28;99220;-63
2021/09/07 06:25:10;;;;;;;24.75;18.08;;;;;;;16.85;68.40;101490.38;4879111;28;126716;-63
2021/09/07 06:27:36;;;;;;;20.17;17.27;;;;;;;16.93;68.18;101494.41;4886637;28;98059;-63
2021/09/07 06:30:02;;;;;;;19.83;17.13;;;;;;;17.01;68.02;101496.50;4880632;28;126991;-60
2021/09/07 06:32:28;;;;;;;20.45;17.27;;;;;;;17.06;68.05;101495.66;4881794;28;106187;-60
2021/09/07 06:34:55;;;;;;;20.50;17.85;;;;;;;17.12;67.70;101497.22;4878859;28;127607;-63
2021/09/07 06:37:21;;;;;;;19.83;17.05;;;;;;;17.16;67.73;101501.00;4887245;28;97896;-60
2021/09/07 06:39:47;;;;;;;19.75;17.35;;;;;;;17.21;67.72;101492.78;4880020;28;126441;-64
2021/09/07 06:42:13;;;;;;;21.35;17.33;;;;;;;17.28;67.61;101498.72;4878174;28;98152;-63
2021/09/07 06:44:39;;;;;;;21.20;17.05;;;;;;;17.35;67.24;101504.63;4889967;28;98214;-60
2021/09/07 06:47:05;;;;;;;21.30;17.20;;;;;;;17.41;67.26;101500.78;4895572;28;123419;-60
2021/09/07 06:49:31;;;;;;;20.92;16.90;;;;;;;17.48;67.28;101508.59;4879481;28;98742;-63
2021/09/07 06:51:57;;;;;;;22.63;17.35;;;;;;;17.54;66.84;101512.91;4878439;28;128221;-63
2021/09/07 06:54:23;;;;;;;19.55;16.90;;;;;;;17.62;66.49;101506.81;4879301;28;114027;-60
2021/09/07 06:56:49;;;;;;;21.42;17.30;;;;;;;17.71;66.37;101511.63;4881627;28;122098;-63
2021/09/07 06:59:15;;;;;;;20.75;16.65;;;;;;;17.80;66.16;101507.19;4879034;28;128177;-63
2021/09/07 07:01:41;;;;;;;18.27;16.23;;;;;;;17.87;65.92;101499.47;4892609;28;125975;-63
2021/09/07 07:04:07;;;;;;;19.42;17.33;;;;;;;17.98;65.69;101505.63;4886347;28;99321;-60
2021/09/07 07:06:33;;;;;;;21.58;16.55;;;;;;;18.05;65.50;101500.63;4878812;28;120462;-60
2021/09/07 07:08:59;;;;;;;19.73;16.92;;;;;;;18.10;65.55;101512.25;4879811;28;98135;-63
2021/09/07 07:11:25;;;;;;;21.63;16.60;;;;;;;18.15;65.44;101509.47;4878862;28;119492;-63
2021/09/07 07:13:51;;;;;;;20.15;16.27;;;;;;;18.24;65.12;101511.56;4879750;28;98161;-63
2021/09/07 07:16:17;;;;;;;17.75;15.57;;;;;;;18.31;65.01;101507.38;4878781;28;122142;-60
2021/09/07 07:18:43;;;;;;;21.55;15.75;;;;;;;18.43;64.67;101503.38;4878305;28;124403;-63
2021/09/07 07:21:09;;;;;;;20.98;15.60;;;;;;;18.55;64.35;101506.47;4877958;28;126884;-64
2021/09/07 07:23:35;;;;;;;19.52;15.85;;;;;;;18.68;63.59;101503.00;4878458;28;126750;-60
2021/09/07 07:26:01;;;;;;;18.67;15.15;;;;;;;18.79;63.56;101506.41;4880759;28;98101;-60
2021/09/07 07:28:28;;;;;;;19.17;16.02;;;;;;;18.92;63.33;101510.31;4878435;28;98667;-60
2021/09/07 07:30:54;;;;;;;20.67;15.93;;;;;;;19.03;62.87;101504.38;4877838;28;128583;-63
2021/09/07 07:33:20;;;;;;;21.30;15.15;;;;;;;19.18;62.66;101503.31;4885011;28;126425;-60
2021/09/07 07:35:46;;;;;;;19.02;15.70;;;;;;;19.31;62.08;101507.97;4877785;28;116738;-63
2021/09/07 07:38:12;;;;;;;17.25;15.45;;;;;;;19.47;61.83;101507.69;4875920;28;98616;-60
2021/09/07 07:40:38;;;;;;;19.52;15.13;;;;;;;19.68;61.25;101522.63;4888414;28;98777;-60
2021/09/07 07:43:04;;;;;;;16.70;14.63;;;;;;;19.89;60.32;101514.03;4878743;28;98679;-63
2021/09/07 07:45:30;;;;;;;16.17;14.48;;;;;;;20.14;59.83;101513.50;4883909;28;99162;-63
2021/09/07 07:47:56;;;;;;;18.73;15.18;;;;;;;20.44;59.44;101520.22;4877215;28;129079;-60
2021/09/07 07:50:22;;;;;;;17.75;14.57;;;;;;;20.75;58.69;101519.53;4877811;28;126957;-60
2021/09/07 07:52:49;;;;;;;16.85;14.23;;;;;;;21.01;58.10;101516.97;4885692;28;97861;-63
2021/09/07 07:55:15;;;;;;;15.45;13.60;;;;;;;21.28;57.01;101514.09;4880097;28;97992;-61
2021/09/07 07:57:41;;;;;;;16.83;14.15;;;;;;;21.56;56.41;101520.22;4884366;28;125351;-63
2021/09/07 08:00:07;;;;;;;16.25;14.25;;;;;;;21.80;56.21;101516.25;4883463;28;128214;-63
2021/09/07 08:02:34;;;;;;;15.70;13.52;;;;;;;22.02;55.64;101524.41;4878029;28;99928;-61
2021/09/07 08:05:00;;;;;;;18.13;13.25;;;;;;;22.20;54.79;101525.28;4878394;28;97966;-63
2021/09/07 08:07:26;;;;;;;16.17;13.13;;;;;;;22.33;54.87;101519.97;4877456;28;128459;-64
2021/09/07 08:09:52;;;;;;;17.10;13.23;;;;;;;22.44;54.46;101533.09;4877024;28;127419;-63
2021/09/07 08:12:18;;;;;;;17.00;13.52;;;;;;;22.55;54.17;101531.59;4877071;28;127615;-61
2021/09/07 08:14:45;;;;;;;20.60;13.23;;;;;;;22.67;53.76;101533.72;4878427;28;97822;-63
2021/09/07 08:17:12;;;;;;;16.25;12.93;;;;;;;22.85;53.50;101530.97;4879594;28;98413;-63
2021/09/07 08:19:38;;;;;;;14.93;13.10;;;;;;;23.04;52.76;101539.72;4879146;28;98742;-63
2021/09/07 08:22:04;;;;;;;15.48;13.20;;;;;;;23.19;52.72;101541.16;4876770;28;127568;-61
2021/09/07 08:24:31;;;;;;;16.83;13.05;;;;;;;23.40;52.55;101541.25;4890846;28;121562;-61
2021/09/07 08:26:57;;;;;;;16.40;12.63;;;;;;;23.62;52.00;101540.19;4884198;28;98019;-60
2021/09/07 08:29:23;;;;;;;13.65;12.23;;;;;;;23.93;50.71;101538.00;4877569;28;127922;-64
2021/09/07 08:31:49;;;;;;;16.88;12.60;;;;;;;24.36;50.04;101539.63;4876948;28;127607;-61
2021/09/07 08:34:15;;;;;;;13.73;12.30;;;;;;;24.92;48.61;101542.16;4881636;28;122504;-64
2021/09/07 08:36:41;;;;;;;15.00;12.35;;;;;;;25.17;48.24;101546.63;4877443;28;127649;-65
2021/09/07 08:39:07;;;;;;;13.50;11.88;;;;;;;25.17;48.19;101543.06;4877533;28;126681;-64
2021/09/07 08:41:33;;;;;;;14.50;11.57;;;;;;;25.07;48.49;101552.50;4877410;28;127459;-63
2021/09/07 08:43:59;;;;;;;14.65;13.13;;;;;;;25.99;46.96;101545.81;4888522;28;123354;-64
2021/09/07 08:46:25;;;;;;;14.02;12.43;;;;;;;27.59;43.84;101544.09;4877658;28;99345;-61
2021/09/07 08:48:51;;;;;;;15.60;11.68;;;;;;;28.52;42.59;101543.50;4877210;28;127022;-63
2021/09/07 08:51:17;;;;;;;13.10;11.57;;;;;;;29.58;40.75;101543.16;4886873;28;125271;-63
2021/09/07 08:53:44;;;;;;;13.63;11.30;;;;;;;30.61;38.52;101543.88;4883839;28;97982;-61
2021/09/07 08:56:11;;;;;;;12.32;11.20;;;;;;;31.48;37.73;101543.63;4878354;28;99463;-61
2021/09/07 08:58:38;;;;;;;13.50;11.18;;;;;;;32.18;36.23;101550.94;4884487;28;125980;-61
2021/09/07 09:01:14;;;;;;;12.43;10.70;;;;;;;33.15;36.23;101545.78;4877450;28;98012;-64
2021/09/07 09:03:45;;;;;;;13.05;11.15;;;;;;;33.97;33.44;101545.78;4877227;28;98070;-64
2021/09/07 09:06:11;;;;;;;11.20;10.10;;;;;;;34.49;32.58;101546.06;4877391;28;99310;-61
2021/09/07 09:08:38;;;;;;;10.70;9.70;;;;;;;34.73;32.79;101547.16;4882535;28;98536;-61
2021/09/07 09:11:12;;;;;;;10.80;9.55;;;;;;;35.08;31.77;101546.16;4876930;28;98042;-64
2021/09/07 09:13:46;;;;;;;11.18;10.15;;;;;;;35.73;31.60;101537.28;4878014;28;97742;-61
2021/09/07 09:16:14;;;;;;;9.85;8.95;;;;;;;35.92;30.09;101538.66;4888016;28;117525;-64
2021/09/07 09:18:42;;;;;;;10.75;9.65;;;;;;;35.72;29.71;101535.66;4878640;28;97881;-64
2021/09/07 09:21:30;;;;;;;9.98;8.98;;;;;;;35.40;31.37;101520.69;4878465;28;98139;-61
2021/09/07 09:24:17;;;;;;;11.45;9.32;;;;;;;35.21;31.14;101521.25;4886669;28;97892;-64
2021/09/07 09:27:03;;;;;;;10.27;9.27;;;;;;;35.53;30.45;101521.03;4880281;28;97789;-64
2021/09/07 09:29:35;;;;;;;9.80;8.80;;;;;;;36.27;28.70;101527.06;4880579;28;97937;-61
2021/09/07 09:32:13;;;;;;;9.43;8.50;;;;;;;37.26;28.69;101526.94;4888135;28;116526;-64
2021/09/07 09:34:40;;;;;;;10.57;9.48;;;;;;;37.39;26.86;101521.50;4880239;28;98186;-61
2021/09/07 09:37:09;;;;;;;11.98;9.45;;;;;;;35.76;28.70;101522.41;4880316;28;98556;-61
2021/09/07 09:39:53;;;;;;;9.32;8.38;;;;;;;33.77;31.68;101505.50;4880557;28;98819;-64
2021/09/07 09:42:26;;;;;;;10.45;9.27;;;;;;;32.62;32.24;101505.34;4880401;28;98584;-60
2021/09/07 09:45:06;;;;;;;11.50;8.77;;;;;;;31.36;34.36;101508.56;4879890;28;98102;-61
2021/09/07 09:47:38;;;;;;;9.40;8.40;;;;;;;30.43;34.74;101496.38;4879909;28;98497;-65
2021/09/07 09:50:10;;;;;;;9.55;8.02;;;;;;;32.95;30.98;101500.66;4887101;28;98487;-64
2021/09/07 09:52:40;;;;;;;10.10;8.23;;;;;;;35.04;29.07;101506.19;4884047;28;104475;-64
2021/09/07 09:55:09;;;;;;;9.27;8.30;;;;;;;36.34;26.98;101514.97;4880363;28;100228;-61
2021/09/07 09:57:35;;;;;;;9.18;8.30;;;;;;;37.22;26.11;101512.16;4880150;28;97885;-61
2021/09/07 10:00:03;;;;;;;8.70;7.85;;;;;;;38.09;25.37;101506.59;4880007;28;97927;-64
2021/09/07 10:02:32;;;;;;;9.48;7.97;;;;;;;38.98;25.02;101509.50;4879711;28;98279;-60
2021/09/07 10:05:02;;;;;;;10.52;7.90;;;;;;;39.41;24.86;101508.47;4880018;28;98021;-61
2021/09/07 10:07:28;;;;;;;8.65;7.85;;;;;;;39.68;24.19;101508.19;4880456;28;98142;-65
2021/09/07 10:09:57;;;;;;;8.95;8.05;;;;;;;40.09;23.42;101495.34;4880109;28;99117;-65
2021/09/07 10:12:37;;;;;;;8.15;7.45;;;;;;;40.42;23.91;101490.34;4877507;28;106071;-61
2021/09/07 10:15:16;;;;;;;7.70;7.00;;;;;;;40.58;23.34;101497.97;4880185;28;98094;-64
2021/09/07 10:20:46;;;;;;;8.13;7.32;;;;;;;40.83;22.47;101491.50;4895877;28;98503;-62
2021/09/07 10:26:09;;;;;;;8.25;7.43;;;;;;;41.44;22.04;101473.34;4890260;28;97935;-61
2021/09/07 10:28:41;;;;;;;8.15;7.35;;;;;;;41.18;21.88;101467.72;4883457;28;119082;-59
2021/09/07 10:31:17;;;;;;;7.75;7.03;;;;;;;41.25;22.54;101463.88;4897554;28;98127;-64
2021/09/07 10:33:52;;;;;;;7.80;7.00;;;;;;;41.01;22.47;101462.72;4882185;28;98195;-63
2021/09/07 10:36:25;;;;;;;8.20;6.85;;;;;;;40.88;22.25;101455.00;4879782;28;98108;-63
2021/09/07 10:38:56;;;;;;;9.57;6.57;;;;;;;40.85;22.60;101452.31;4879852;28;98102;-59
2021/09/07 10:41:35;;;;;;;8.02;6.95;;;;;;;41.02;22.17;101450.16;4885737;28;99009;-59
2021/09/07 10:44:04;;;;;;;7.60;6.32;;;;;;;40.89;21.89;101450.94;4879423;28;98716;-59
2021/09/07 10:46:55;;;;;;;7.37;6.17;;;;;;;41.06;22.24;101448.78;4882796;28;99351;-63
2021/09/07 10:49:23;;;;;;;;;;;;;;;41.60;22.59;101444.09;4880047;28;99022;-59
2021/09/07 10:52:10;;;;;;;9.32;6.60;;;;;;;40.88;22.36;101440.09;4879498;28;97982;-64
2021/09/07 10:54:52;;;;;;;7.75;6.80;;;;;;;40.50;22.27;101440.88;4879998;28;98130;-59
2021/09/07 10:57:45;;;;;;;7.40;6.70;;;;;;;38.70;23.82;101440.53;4879664;28;97832;-59
2021/09/07 11:00:20;;;;;;;7.47;6.78;;;;;;;37.44;24.72;101447.16;4879534;28;98789;-65
2021/09/07 11:02:56;;;;;;;8.02;6.88;;;;;;;36.88;24.94;101438.47;4879913;28;97900;-62
2021/09/07 11:05:41;;;;;;;8.32;7.53;;;;;;;35.21;26.30;101442.84;4878690;28;98602;-58
2021/09/07 11:08:43;;;;;;;7.30;6.70;;;;;;;34.50;27.44;101427.34;4879626;28;97840;-59
2021/09/07 11:11:41;;;;;;;8.25;7.30;;;;;;;34.15;27.31;101429.13;4878604;28;97933;-65
2021/09/07 11:14:10;;;;;;;7.15;6.50;;;;;;;34.79;26.93;101435.56;4878032;28;128023;-65
2021/09/07 11:16:36;;;;;;;8.43;7.65;;;;;;;34.09;27.73;101443.91;4879741;28;98504;-61